sensor_id;sensor_type;location;lat;lon;timestamp;P1;durP1;ratioP1;P2;durP2;ratioP2
6840;SDS011;3458;53.678;14.080;2023-04-25T00:02:17;3.80;;;2.53;;
6840;SDS011;3458;53.678;14.080;2023-04-25T00:04:44;3.27;;;2.10;;
6840;SDS011;3458;53.678;14.080;2023-04-25T00:07:09;2.20;;;2.00;;
6840;SDS011;3458;53.678;14.080;2023-04-25T00:09:35;6.00;;;2.20;;
6840;SDS011;3458;53.678;14.080;2023-04-25T00:12:01;2.40;;;2.10;;
6840;SDS011;3458;53.678;14.080;2023-04-25T00:14:26;2.20;;;2.00;;
6840;SDS011;3458;53.678;14.080;2023-04-25T00:16:52;5.47;;;2.20;;
6840;SDS011;3458;53.678;14.080;2023-04-25T00:19:19;5.70;;;2.70;;
6840;SDS011;3458;53.678;14.080;2023-04-25T00:21:44;2.50;;;2.10;;
6840;SDS011;3458;53.678;14.080;2023-04-25T00:24:11;3.33;;;2.07;;
6840;SDS011;3458;53.678;14.080;2023-04-25T00:26:37;2.73;;;2.20;;
6840;SDS011;3458;53.678;14.080;2023-04-25T00:29:02;3.07;;;2.37;;
6840;SDS011;3458;53.678;14.080;2023-04-25T00:31:28;3.20;;;1.70;;
6840;SDS011;3458;53.678;14.080;2023-04-25T00:33:54;7.30;;;2.70;;
6840;SDS011;3458;53.678;14.080;2023-04-25T00:36:19;5.63;;;2.07;;
6840;SDS011;3458;53.678;14.080;2023-04-25T00:38:45;2.30;;;2.10;;
6840;SDS011;3458;53.678;14.080;2023-04-25T00:41:10;2.97;;;2.20;;
6840;SDS011;3458;53.678;14.080;2023-04-25T00:43:37;1.77;;;1.67;;
6840;SDS011;3458;53.678;14.080;2023-04-25T00:46:03;3.67;;;2.20;;
6840;SDS011;3458;53.678;14.080;2023-04-25T00:48:28;2.70;;;1.97;;
6840;SDS011;3458;53.678;14.080;2023-04-25T00:50:55;4.47;;;2.20;;
6840;SDS011;3458;53.678;14.080;2023-04-25T00:53:23;3.40;;;2.20;;
6840;SDS011;3458;53.678;14.080;2023-04-25T00:55:49;7.90;;;1.83;;
6840;SDS011;3458;53.678;14.080;2023-04-25T00:58:16;4.83;;;2.23;;
6840;SDS011;3458;53.678;14.080;2023-04-25T01:00:43;4.37;;;2.37;;
6840;SDS011;3458;53.678;14.080;2023-04-25T01:03:11;2.63;;;2.23;;
6840;SDS011;3458;53.678;14.080;2023-04-25T01:05:37;7.93;;;2.53;;
6840;SDS011;3458;53.678;14.080;2023-04-25T01:08:04;2.20;;;1.93;;
6840;SDS011;3458;53.678;14.080;2023-04-25T01:10:30;4.63;;;2.53;;
6840;SDS011;3458;53.678;14.080;2023-04-25T01:12:55;2.67;;;2.43;;
6840;SDS011;3458;53.678;14.080;2023-04-25T01:15:20;2.60;;;2.20;;
6840;SDS011;3458;53.678;14.080;2023-04-25T01:17:46;3.50;;;2.00;;
6840;SDS011;3458;53.678;14.080;2023-04-25T01:20:14;2.93;;;2.27;;
6840;SDS011;3458;53.678;14.080;2023-04-25T01:22:40;4.17;;;2.10;;
6840;SDS011;3458;53.678;14.080;2023-04-25T01:25:06;3.43;;;1.97;;
6840;SDS011;3458;53.678;14.080;2023-04-25T01:27:32;7.83;;;2.20;;
6840;SDS011;3458;53.678;14.080;2023-04-25T01:29:58;3.13;;;2.60;;
6840;SDS011;3458;53.678;14.080;2023-04-25T01:32:24;11.80;;;3.53;;
6840;SDS011;3458;53.678;14.080;2023-04-25T01:34:51;4.27;;;3.03;;
6840;SDS011;3458;53.678;14.080;2023-04-25T01:37:16;3.30;;;2.50;;
6840;SDS011;3458;53.678;14.080;2023-04-25T01:39:42;4.43;;;2.23;;
6840;SDS011;3458;53.678;14.080;2023-04-25T01:42:08;3.57;;;1.93;;
6840;SDS011;3458;53.678;14.080;2023-04-25T01:44:33;2.20;;;2.00;;
6840;SDS011;3458;53.678;14.080;2023-04-25T01:46:59;3.47;;;2.20;;
6840;SDS011;3458;53.678;14.080;2023-04-25T01:49:24;2.77;;;1.97;;
6840;SDS011;3458;53.678;14.080;2023-04-25T01:51:50;4.80;;;2.00;;
6840;SDS011;3458;53.678;14.080;2023-04-25T01:54:15;3.67;;;2.23;;
6840;SDS011;3458;53.678;14.080;2023-04-25T01:56:43;5.43;;;2.27;;
6840;SDS011;3458;53.678;14.080;2023-04-25T01:59:09;3.57;;;2.20;;
6840;SDS011;3458;53.678;14.080;2023-04-25T02:01:34;3.83;;;2.33;;
6840;SDS011;3458;53.678;14.080;2023-04-25T02:04:00;4.40;;;2.33;;
6840;SDS011;3458;53.678;14.080;2023-04-25T02:06:25;13.47;;;2.80;;
6840;SDS011;3458;53.678;14.080;2023-04-25T02:08:51;4.33;;;2.23;;
6840;SDS011;3458;53.678;14.080;2023-04-25T02:11:16;3.70;;;2.63;;
6840;SDS011;3458;53.678;14.080;2023-04-25T02:13:42;4.57;;;1.93;;
6840;SDS011;3458;53.678;14.080;2023-04-25T02:16:07;3.27;;;2.60;;
6840;SDS011;3458;53.678;14.080;2023-04-25T02:18:33;2.77;;;2.33;;
6840;SDS011;3458;53.678;14.080;2023-04-25T02:20:59;4.87;;;2.73;;
6840;SDS011;3458;53.678;14.080;2023-04-25T02:23:26;3.67;;;2.50;;
6840;SDS011;3458;53.678;14.080;2023-04-25T02:25:51;4.20;;;2.47;;
6840;SDS011;3458;53.678;14.080;2023-04-25T02:28:17;3.70;;;2.90;;
6840;SDS011;3458;53.678;14.080;2023-04-25T02:30:43;7.57;;;3.03;;
6840;SDS011;3458;53.678;14.080;2023-04-25T02:33:08;5.83;;;3.20;;
6840;SDS011;3458;53.678;14.080;2023-04-25T02:35:34;5.40;;;2.87;;
6840;SDS011;3458;53.678;14.080;2023-04-25T02:37:59;2.37;;;1.80;;
6840;SDS011;3458;53.678;14.080;2023-04-25T02:40:25;4.00;;;2.30;;
6840;SDS011;3458;53.678;14.080;2023-04-25T02:42:50;5.60;;;2.53;;
6840;SDS011;3458;53.678;14.080;2023-04-25T02:45:16;6.93;;;2.93;;
6840;SDS011;3458;53.678;14.080;2023-04-25T02:47:42;3.90;;;2.40;;
6840;SDS011;3458;53.678;14.080;2023-04-25T02:50:07;3.57;;;2.00;;
6840;SDS011;3458;53.678;14.080;2023-04-25T02:52:33;5.13;;;2.83;;
6840;SDS011;3458;53.678;14.080;2023-04-25T02:54:58;10.27;;;2.73;;
6840;SDS011;3458;53.678;14.080;2023-04-25T02:57:24;4.13;;;2.90;;
6840;SDS011;3458;53.678;14.080;2023-04-25T02:59:49;2.80;;;2.10;;
6840;SDS011;3458;53.678;14.080;2023-04-25T03:02:15;4.27;;;2.50;;
6840;SDS011;3458;53.678;14.080;2023-04-25T03:04:40;6.77;;;3.00;;
6840;SDS011;3458;53.678;14.080;2023-04-25T03:07:06;7.10;;;2.80;;
6840;SDS011;3458;53.678;14.080;2023-04-25T03:09:32;2.47;;;2.27;;
6840;SDS011;3458;53.678;14.080;2023-04-25T03:11:57;6.70;;;2.53;;
6840;SDS011;3458;53.678;14.080;2023-04-25T03:14:23;3.80;;;2.40;;
6840;SDS011;3458;53.678;14.080;2023-04-25T03:16:48;4.30;;;2.30;;
6840;SDS011;3458;53.678;14.080;2023-04-25T03:19:14;3.67;;;2.40;;
6840;SDS011;3458;53.678;14.080;2023-04-25T03:21:41;2.70;;;2.00;;
6840;SDS011;3458;53.678;14.080;2023-04-25T03:24:07;3.20;;;2.37;;
6840;SDS011;3458;53.678;14.080;2023-04-25T03:26:32;2.27;;;2.07;;
6840;SDS011;3458;53.678;14.080;2023-04-25T03:28:58;3.70;;;2.63;;
6840;SDS011;3458;53.678;14.080;2023-04-25T03:31:23;5.83;;;2.53;;
6840;SDS011;3458;53.678;14.080;2023-04-25T03:33:49;6.63;;;2.60;;
6840;SDS011;3458;53.678;14.080;2023-04-25T03:36:15;6.37;;;2.50;;
6840;SDS011;3458;53.678;14.080;2023-04-25T03:38:40;6.10;;;3.20;;
6840;SDS011;3458;53.678;14.080;2023-04-25T03:41:06;4.80;;;2.13;;
6840;SDS011;3458;53.678;14.080;2023-04-25T03:43:32;5.63;;;2.70;;
6840;SDS011;3458;53.678;14.080;2023-04-25T03:45:57;7.80;;;3.00;;
6840;SDS011;3458;53.678;14.080;2023-04-25T03:48:23;12.47;;;2.93;;
6840;SDS011;3458;53.678;14.080;2023-04-25T03:50:50;12.37;;;2.50;;
6840;SDS011;3458;53.678;14.080;2023-04-25T03:53:16;8.77;;;2.50;;
6840;SDS011;3458;53.678;14.080;2023-04-25T03:55:42;9.40;;;3.40;;
6840;SDS011;3458;53.678;14.080;2023-04-25T03:58:07;11.07;;;3.63;;
6840;SDS011;3458;53.678;14.080;2023-04-25T04:00:33;8.33;;;3.20;;
6840;SDS011;3458;53.678;14.080;2023-04-25T04:03:00;8.20;;;3.30;;
6840;SDS011;3458;53.678;14.080;2023-04-25T04:05:25;4.43;;;2.73;;
6840;SDS011;3458;53.678;14.080;2023-04-25T04:07:52;4.07;;;3.13;;
6840;SDS011;3458;53.678;14.080;2023-04-25T04:10:18;6.47;;;2.93;;
6840;SDS011;3458;53.678;14.080;2023-04-25T04:12:43;8.43;;;3.27;;
6840;SDS011;3458;53.678;14.080;2023-04-25T04:15:09;7.17;;;3.30;;
6840;SDS011;3458;53.678;14.080;2023-04-25T04:17:35;5.80;;;2.67;;
6840;SDS011;3458;53.678;14.080;2023-04-25T04:20:00;4.60;;;2.60;;
6840;SDS011;3458;53.678;14.080;2023-04-25T04:22:26;6.10;;;2.43;;
6840;SDS011;3458;53.678;14.080;2023-04-25T04:24:51;9.10;;;3.17;;
6840;SDS011;3458;53.678;14.080;2023-04-25T04:27:17;5.00;;;2.50;;
6840;SDS011;3458;53.678;14.080;2023-04-25T04:29:44;8.40;;;2.63;;
6840;SDS011;3458;53.678;14.080;2023-04-25T04:32:10;4.93;;;3.13;;
6840;SDS011;3458;53.678;14.080;2023-04-25T04:34:36;7.10;;;3.20;;
6840;SDS011;3458;53.678;14.080;2023-04-25T04:37:02;7.70;;;3.07;;
6840;SDS011;3458;53.678;14.080;2023-04-25T04:39:27;10.10;;;3.20;;
6840;SDS011;3458;53.678;14.080;2023-04-25T04:41:53;5.37;;;2.50;;
6840;SDS011;3458;53.678;14.080;2023-04-25T04:44:19;4.90;;;3.20;;
6840;SDS011;3458;53.678;14.080;2023-04-25T04:46:44;8.40;;;2.77;;
6840;SDS011;3458;53.678;14.080;2023-04-25T04:49:11;3.40;;;2.63;;
6840;SDS011;3458;53.678;14.080;2023-04-25T04:51:38;4.60;;;2.83;;
6840;SDS011;3458;53.678;14.080;2023-04-25T04:54:05;6.30;;;3.30;;
6840;SDS011;3458;53.678;14.080;2023-04-25T04:56:31;5.13;;;2.77;;
6840;SDS011;3458;53.678;14.080;2023-04-25T04:58:57;4.23;;;2.77;;
6840;SDS011;3458;53.678;14.080;2023-04-25T05:01:24;9.87;;;3.30;;
6840;SDS011;3458;53.678;14.080;2023-04-25T05:03:50;5.87;;;2.70;;
6840;SDS011;3458;53.678;14.080;2023-04-25T05:06:18;12.87;;;3.33;;
6840;SDS011;3458;53.678;14.080;2023-04-25T05:08:44;9.57;;;4.30;;
6840;SDS011;3458;53.678;14.080;2023-04-25T05:11:10;9.53;;;3.30;;
6840;SDS011;3458;53.678;14.080;2023-04-25T05:13:36;8.07;;;3.43;;
6840;SDS011;3458;53.678;14.080;2023-04-25T05:16:01;11.13;;;3.10;;
6840;SDS011;3458;53.678;14.080;2023-04-25T05:18:27;5.13;;;3.10;;
6840;SDS011;3458;53.678;14.080;2023-04-25T05:20:52;11.50;;;3.00;;
6840;SDS011;3458;53.678;14.080;2023-04-25T05:23:18;9.00;;;3.10;;
6840;SDS011;3458;53.678;14.080;2023-04-25T05:25:44;7.67;;;2.50;;
6840;SDS011;3458;53.678;14.080;2023-04-25T05:28:10;6.03;;;2.90;;
6840;SDS011;3458;53.678;14.080;2023-04-25T05:30:37;6.97;;;2.70;;
6840;SDS011;3458;53.678;14.080;2023-04-25T05:33:02;6.27;;;3.13;;
6840;SDS011;3458;53.678;14.080;2023-04-25T05:35:28;6.70;;;3.10;;
6840;SDS011;3458;53.678;14.080;2023-04-25T05:37:54;14.13;;;2.63;;
6840;SDS011;3458;53.678;14.080;2023-04-25T05:40:19;3.40;;;2.60;;
6840;SDS011;3458;53.678;14.080;2023-04-25T05:42:45;6.73;;;2.80;;
6840;SDS011;3458;53.678;14.080;2023-04-25T05:45:11;9.43;;;3.70;;
6840;SDS011;3458;53.678;14.080;2023-04-25T05:47:36;5.27;;;3.37;;
6840;SDS011;3458;53.678;14.080;2023-04-25T05:50:02;6.97;;;3.10;;
6840;SDS011;3458;53.678;14.080;2023-04-25T05:52:27;4.70;;;2.40;;
6840;SDS011;3458;53.678;14.080;2023-04-25T05:54:53;5.83;;;3.33;;
6840;SDS011;3458;53.678;14.080;2023-04-25T05:57:19;6.37;;;3.13;;
6840;SDS011;3458;53.678;14.080;2023-04-25T05:59:46;5.93;;;3.60;;
6840;SDS011;3458;53.678;14.080;2023-04-25T06:02:11;10.13;;;3.90;;
6840;SDS011;3458;53.678;14.080;2023-04-25T06:04:37;6.77;;;3.60;;
6840;SDS011;3458;53.678;14.080;2023-04-25T06:07:02;8.80;;;3.77;;
6840;SDS011;3458;53.678;14.080;2023-04-25T06:09:28;8.20;;;4.23;;
6840;SDS011;3458;53.678;14.080;2023-04-25T06:11:54;6.97;;;3.53;;
6840;SDS011;3458;53.678;14.080;2023-04-25T06:14:20;8.73;;;3.63;;
6840;SDS011;3458;53.678;14.080;2023-04-25T06:16:45;9.03;;;3.23;;
6840;SDS011;3458;53.678;14.080;2023-04-25T06:19:11;11.30;;;3.73;;
6840;SDS011;3458;53.678;14.080;2023-04-25T06:21:36;5.13;;;3.60;;
6840;SDS011;3458;53.678;14.080;2023-04-25T06:24:02;4.90;;;3.73;;
6840;SDS011;3458;53.678;14.080;2023-04-25T06:26:28;5.83;;;3.40;;
6840;SDS011;3458;53.678;14.080;2023-04-25T06:28:53;13.60;;;3.60;;
6840;SDS011;3458;53.678;14.080;2023-04-25T06:31:19;8.77;;;3.27;;
6840;SDS011;3458;53.678;14.080;2023-04-25T06:33:44;16.60;;;4.30;;
6840;SDS011;3458;53.678;14.080;2023-04-25T06:36:10;6.63;;;4.03;;
6840;SDS011;3458;53.678;14.080;2023-04-25T06:38:35;8.97;;;4.10;;
6840;SDS011;3458;53.678;14.080;2023-04-25T06:41:01;13.60;;;5.10;;
6840;SDS011;3458;53.678;14.080;2023-04-25T06:43:27;15.63;;;6.27;;
6840;SDS011;3458;53.678;14.080;2023-04-25T06:45:53;17.10;;;5.50;;
6840;SDS011;3458;53.678;14.080;2023-04-25T06:48:18;17.93;;;7.30;;
6840;SDS011;3458;53.678;14.080;2023-04-25T06:50:43;10.47;;;5.00;;
6840;SDS011;3458;53.678;14.080;2023-04-25T06:53:09;18.50;;;4.80;;
6840;SDS011;3458;53.678;14.080;2023-04-25T06:55:36;8.97;;;4.17;;
6840;SDS011;3458;53.678;14.080;2023-04-25T06:58:02;16.13;;;4.00;;
6840;SDS011;3458;53.678;14.080;2023-04-25T07:00:28;9.87;;;4.20;;
6840;SDS011;3458;53.678;14.080;2023-04-25T07:02:53;9.10;;;4.53;;
6840;SDS011;3458;53.678;14.080;2023-04-25T07:05:19;9.90;;;3.87;;
6840;SDS011;3458;53.678;14.080;2023-04-25T07:07:45;9.47;;;3.90;;
6840;SDS011;3458;53.678;14.080;2023-04-25T07:10:10;9.93;;;4.30;;
6840;SDS011;3458;53.678;14.080;2023-04-25T07:12:36;13.17;;;4.63;;
6840;SDS011;3458;53.678;14.080;2023-04-25T07:15:01;8.67;;;4.37;;
6840;SDS011;3458;53.678;14.080;2023-04-25T07:17:30;21.93;;;4.77;;
6840;SDS011;3458;53.678;14.080;2023-04-25T07:19:56;18.90;;;5.20;;
6840;SDS011;3458;53.678;14.080;2023-04-25T07:22:22;18.13;;;4.57;;
6840;SDS011;3458;53.678;14.080;2023-04-25T07:24:47;22.73;;;3.83;;
6840;SDS011;3458;53.678;14.080;2023-04-25T07:27:13;18.03;;;4.70;;
6840;SDS011;3458;53.678;14.080;2023-04-25T07:29:39;15.30;;;5.53;;
6840;SDS011;3458;53.678;14.080;2023-04-25T07:32:05;22.37;;;4.40;;
6840;SDS011;3458;53.678;14.080;2023-04-25T07:34:30;21.50;;;5.37;;
6840;SDS011;3458;53.678;14.080;2023-04-25T07:36:56;11.50;;;3.67;;
6840;SDS011;3458;53.678;14.080;2023-04-25T07:39:22;11.90;;;3.70;;
6840;SDS011;3458;53.678;14.080;2023-04-25T07:41:48;10.17;;;3.57;;
6840;SDS011;3458;53.678;14.080;2023-04-25T07:44:13;13.73;;;4.60;;
6840;SDS011;3458;53.678;14.080;2023-04-25T07:46:39;14.70;;;4.47;;
6840;SDS011;3458;53.678;14.080;2023-04-25T07:49:05;14.03;;;3.63;;
6840;SDS011;3458;53.678;14.080;2023-04-25T07:51:30;13.00;;;3.77;;
6840;SDS011;3458;53.678;14.080;2023-04-25T07:53:56;15.63;;;3.70;;
6840;SDS011;3458;53.678;14.080;2023-04-25T07:56:21;15.23;;;3.73;;
6840;SDS011;3458;53.678;14.080;2023-04-25T07:58:47;14.13;;;3.53;;
6840;SDS011;3458;53.678;14.080;2023-04-25T08:01:12;12.60;;;3.80;;
6840;SDS011;3458;53.678;14.080;2023-04-25T08:03:38;12.03;;;3.70;;
6840;SDS011;3458;53.678;14.080;2023-04-25T08:06:03;12.00;;;4.40;;
6840;SDS011;3458;53.678;14.080;2023-04-25T08:08:29;15.17;;;4.40;;
6840;SDS011;3458;53.678;14.080;2023-04-25T08:10:55;15.43;;;3.77;;
6840;SDS011;3458;53.678;14.080;2023-04-25T08:13:20;24.17;;;5.63;;
6840;SDS011;3458;53.678;14.080;2023-04-25T08:15:46;20.60;;;4.33;;
6840;SDS011;3458;53.678;14.080;2023-04-25T08:18:11;11.10;;;4.43;;
6840;SDS011;3458;53.678;14.080;2023-04-25T08:20:37;10.37;;;2.93;;
6840;SDS011;3458;53.678;14.080;2023-04-25T08:23:02;12.63;;;5.43;;
6840;SDS011;3458;53.678;14.080;2023-04-25T08:25:28;19.30;;;3.43;;
6840;SDS011;3458;53.678;14.080;2023-04-25T08:27:53;12.27;;;3.60;;
6840;SDS011;3458;53.678;14.080;2023-04-25T08:30:19;24.20;;;4.37;;
6840;SDS011;3458;53.678;14.080;2023-04-25T08:32:44;11.33;;;3.40;;
6840;SDS011;3458;53.678;14.080;2023-04-25T08:35:10;17.17;;;3.37;;
6840;SDS011;3458;53.678;14.080;2023-04-25T08:37:36;16.10;;;3.90;;
6840;SDS011;3458;53.678;14.080;2023-04-25T08:40:01;17.97;;;3.90;;
6840;SDS011;3458;53.678;14.080;2023-04-25T08:42:31;21.90;;;4.80;;
6840;SDS011;3458;53.678;14.080;2023-04-25T08:44:59;10.70;;;2.57;;
6840;SDS011;3458;53.678;14.080;2023-04-25T08:47:27;15.47;;;3.10;;
6840;SDS011;3458;53.678;14.080;2023-04-25T08:49:57;16.70;;;3.90;;
6840;SDS011;3458;53.678;14.080;2023-04-25T08:52:24;14.33;;;3.40;;
6840;SDS011;3458;53.678;14.080;2023-04-25T08:54:55;14.10;;;3.10;;
6840;SDS011;3458;53.678;14.080;2023-04-25T08:57:21;12.33;;;3.87;;
6840;SDS011;3458;53.678;14.080;2023-04-25T08:59:48;18.33;;;4.70;;
6840;SDS011;3458;53.678;14.080;2023-04-25T09:02:14;13.70;;;4.07;;
6840;SDS011;3458;53.678;14.080;2023-04-25T09:04:42;11.87;;;3.63;;
6840;SDS011;3458;53.678;14.080;2023-04-25T09:07:09;16.53;;;3.83;;
6840;SDS011;3458;53.678;14.080;2023-04-25T09:09:34;17.70;;;3.90;;
6840;SDS011;3458;53.678;14.080;2023-04-25T09:12:01;8.10;;;2.80;;
6840;SDS011;3458;53.678;14.080;2023-04-25T09:14:26;20.00;;;3.47;;
6840;SDS011;3458;53.678;14.080;2023-04-25T09:19:22;15.13;;;3.80;;
6840;SDS011;3458;53.678;14.080;2023-04-25T09:21:53;13.00;;;2.70;;
6840;SDS011;3458;53.678;14.080;2023-04-25T09:24:31;15.67;;;3.17;;
6840;SDS011;3458;53.678;14.080;2023-04-25T09:27:08;15.40;;;3.90;;
6840;SDS011;3458;53.678;14.080;2023-04-25T09:29:36;21.37;;;4.67;;
6840;SDS011;3458;53.678;14.080;2023-04-25T09:34:40;17.33;;;3.93;;
6840;SDS011;3458;53.678;14.080;2023-04-25T09:37:07;8.33;;;2.80;;
6840;SDS011;3458;53.678;14.080;2023-04-25T09:39:36;13.73;;;3.90;;
6840;SDS011;3458;53.678;14.080;2023-04-25T09:42:03;15.60;;;3.10;;
6840;SDS011;3458;53.678;14.080;2023-04-25T09:44:35;13.47;;;2.83;;
6840;SDS011;3458;53.678;14.080;2023-04-25T09:47:00;14.07;;;4.00;;
6840;SDS011;3458;53.678;14.080;2023-04-25T09:49:28;14.93;;;4.37;;
6840;SDS011;3458;53.678;14.080;2023-04-25T09:51:56;13.60;;;3.40;;
6840;SDS011;3458;53.678;14.080;2023-04-25T09:54:22;14.73;;;3.83;;
6840;SDS011;3458;53.678;14.080;2023-04-25T09:56:49;8.30;;;3.17;;
6840;SDS011;3458;53.678;14.080;2023-04-25T09:59:18;10.17;;;3.50;;
6840;SDS011;3458;53.678;14.080;2023-04-25T10:01:46;14.60;;;3.17;;
6840;SDS011;3458;53.678;14.080;2023-04-25T10:04:13;14.07;;;3.90;;
6840;SDS011;3458;53.678;14.080;2023-04-25T10:06:48;13.87;;;3.30;;
6840;SDS011;3458;53.678;14.080;2023-04-25T10:09:15;21.10;;;4.63;;
6840;SDS011;3458;53.678;14.080;2023-04-25T10:11:43;13.43;;;3.70;;
6840;SDS011;3458;53.678;14.080;2023-04-25T10:14:12;11.23;;;3.60;;
6840;SDS011;3458;53.678;14.080;2023-04-25T10:16:38;13.50;;;3.60;;
6840;SDS011;3458;53.678;14.080;2023-04-25T10:19:06;13.70;;;3.97;;
6840;SDS011;3458;53.678;14.080;2023-04-25T10:21:32;13.17;;;3.50;;
6840;SDS011;3458;53.678;14.080;2023-04-25T10:23:59;12.27;;;2.90;;
6840;SDS011;3458;53.678;14.080;2023-04-25T10:26:25;12.00;;;3.13;;
6840;SDS011;3458;53.678;14.080;2023-04-25T10:28:55;17.60;;;2.80;;
6840;SDS011;3458;53.678;14.080;2023-04-25T10:31:22;12.53;;;3.33;;
6840;SDS011;3458;53.678;14.080;2023-04-25T10:33:48;15.17;;;3.33;;
6840;SDS011;3458;53.678;14.080;2023-04-25T10:36:18;11.70;;;3.37;;
6840;SDS011;3458;53.678;14.080;2023-04-25T10:38:44;13.07;;;2.90;;
6840;SDS011;3458;53.678;14.080;2023-04-25T10:41:11;11.30;;;3.10;;
6840;SDS011;3458;53.678;14.080;2023-04-25T10:43:41;9.90;;;3.27;;
6840;SDS011;3458;53.678;14.080;2023-04-25T10:46:18;23.80;;;3.47;;
6840;SDS011;3458;53.678;14.080;2023-04-25T10:49:00;11.63;;;2.93;;
6840;SDS011;3458;53.678;14.080;2023-04-25T10:51:27;8.60;;;3.03;;
6840;SDS011;3458;53.678;14.080;2023-04-25T10:56:27;19.50;;;3.47;;
6840;SDS011;3458;53.678;14.080;2023-04-25T10:59:09;13.37;;;3.20;;
6840;SDS011;3458;53.678;14.080;2023-04-25T11:04:03;11.67;;;3.13;;
6840;SDS011;3458;53.678;14.080;2023-04-25T11:06:29;20.50;;;3.70;;
6840;SDS011;3458;53.678;14.080;2023-04-25T11:09:02;5.07;;;2.60;;
6840;SDS011;3458;53.678;14.080;2023-04-25T11:11:36;17.90;;;3.10;;
6840;SDS011;3458;53.678;14.080;2023-04-25T11:14:01;14.50;;;3.00;;
6840;SDS011;3458;53.678;14.080;2023-04-25T11:16:27;10.23;;;2.80;;
6840;SDS011;3458;53.678;14.080;2023-04-25T11:18:52;10.50;;;2.70;;
6840;SDS011;3458;53.678;14.080;2023-04-25T11:21:18;7.80;;;2.67;;
6840;SDS011;3458;53.678;14.080;2023-04-25T11:23:44;11.20;;;3.30;;
6840;SDS011;3458;53.678;14.080;2023-04-25T11:26:11;15.60;;;2.80;;
6840;SDS011;3458;53.678;14.080;2023-04-25T11:28:37;10.17;;;3.30;;
6840;SDS011;3458;53.678;14.080;2023-04-25T11:31:03;10.00;;;2.77;;
6840;SDS011;3458;53.678;14.080;2023-04-25T11:33:29;13.67;;;3.00;;
6840;SDS011;3458;53.678;14.080;2023-04-25T11:35:55;17.07;;;3.30;;
6840;SDS011;3458;53.678;14.080;2023-04-25T11:38:24;6.53;;;2.80;;
6840;SDS011;3458;53.678;14.080;2023-04-25T11:40:51;25.57;;;3.30;;
6840;SDS011;3458;53.678;14.080;2023-04-25T11:43:17;7.90;;;2.47;;
6840;SDS011;3458;53.678;14.080;2023-04-25T11:45:46;15.73;;;3.20;;
6840;SDS011;3458;53.678;14.080;2023-04-25T11:48:13;14.77;;;5.20;;
6840;SDS011;3458;53.678;14.080;2023-04-25T11:50:39;16.00;;;5.27;;
6840;SDS011;3458;53.678;14.080;2023-04-25T11:53:04;8.03;;;3.07;;
6840;SDS011;3458;53.678;14.080;2023-04-25T11:55:31;19.23;;;3.33;;
6840;SDS011;3458;53.678;14.080;2023-04-25T11:57:58;12.70;;;3.00;;
6840;SDS011;3458;53.678;14.080;2023-04-25T12:00:25;13.80;;;3.00;;
6840;SDS011;3458;53.678;14.080;2023-04-25T12:02:55;10.20;;;2.30;;
6840;SDS011;3458;53.678;14.080;2023-04-25T12:05:29;14.77;;;2.87;;
6840;SDS011;3458;53.678;14.080;2023-04-25T12:07:57;15.87;;;3.30;;
6840;SDS011;3458;53.678;14.080;2023-04-25T12:10:33;17.10;;;2.90;;
6840;SDS011;3458;53.678;14.080;2023-04-25T12:13:17;13.30;;;3.53;;
6840;SDS011;3458;53.678;14.080;2023-04-25T12:15:44;10.07;;;3.53;;
6840;SDS011;3458;53.678;14.080;2023-04-25T12:18:09;18.87;;;4.43;;
6840;SDS011;3458;53.678;14.080;2023-04-25T12:20:35;16.23;;;3.97;;
6840;SDS011;3458;53.678;14.080;2023-04-25T12:23:01;14.63;;;3.33;;
6840;SDS011;3458;53.678;14.080;2023-04-25T12:25:35;15.97;;;4.00;;
6840;SDS011;3458;53.678;14.080;2023-04-25T12:28:14;11.27;;;3.60;;
6840;SDS011;3458;53.678;14.080;2023-04-25T12:30:57;14.00;;;3.20;;
6840;SDS011;3458;53.678;14.080;2023-04-25T12:33:24;6.57;;;2.80;;
6840;SDS011;3458;53.678;14.080;2023-04-25T12:35:52;14.87;;;3.20;;
6840;SDS011;3458;53.678;14.080;2023-04-25T12:38:21;7.47;;;3.03;;
6840;SDS011;3458;53.678;14.080;2023-04-25T12:41:00;11.87;;;3.70;;
6840;SDS011;3458;53.678;14.080;2023-04-25T12:43:26;14.80;;;3.13;;
6840;SDS011;3458;53.678;14.080;2023-04-25T12:45:52;7.47;;;3.07;;
6840;SDS011;3458;53.678;14.080;2023-04-25T12:48:19;15.70;;;3.97;;
6840;SDS011;3458;53.678;14.080;2023-04-25T12:50:45;13.70;;;3.30;;
6840;SDS011;3458;53.678;14.080;2023-04-25T12:53:13;12.27;;;3.63;;
6840;SDS011;3458;53.678;14.080;2023-04-25T12:55:43;16.27;;;3.07;;
6840;SDS011;3458;53.678;14.080;2023-04-25T12:58:15;13.40;;;2.90;;
6840;SDS011;3458;53.678;14.080;2023-04-25T13:00:42;15.37;;;2.37;;
6840;SDS011;3458;53.678;14.080;2023-04-25T13:03:08;10.47;;;3.27;;
6840;SDS011;3458;53.678;14.080;2023-04-25T13:05:34;6.80;;;2.67;;
6840;SDS011;3458;53.678;14.080;2023-04-25T13:07:59;10.57;;;2.80;;
6840;SDS011;3458;53.678;14.080;2023-04-25T13:10:25;9.27;;;2.83;;
6840;SDS011;3458;53.678;14.080;2023-04-25T13:12:50;10.90;;;3.30;;
6840;SDS011;3458;53.678;14.080;2023-04-25T13:15:16;10.20;;;3.17;;
6840;SDS011;3458;53.678;14.080;2023-04-25T13:17:42;6.90;;;2.70;;
6840;SDS011;3458;53.678;14.080;2023-04-25T13:20:07;8.43;;;3.10;;
6840;SDS011;3458;53.678;14.080;2023-04-25T13:22:37;10.63;;;2.40;;
6840;SDS011;3458;53.678;14.080;2023-04-25T13:25:04;10.10;;;2.60;;
6840;SDS011;3458;53.678;14.080;2023-04-25T13:27:31;7.63;;;2.60;;
6840;SDS011;3458;53.678;14.080;2023-04-25T13:29:58;10.60;;;3.60;;
6840;SDS011;3458;53.678;14.080;2023-04-25T13:32:25;8.63;;;2.60;;
6840;SDS011;3458;53.678;14.080;2023-04-25T13:34:51;17.87;;;3.10;;
6840;SDS011;3458;53.678;14.080;2023-04-25T13:37:16;9.70;;;2.70;;
6840;SDS011;3458;53.678;14.080;2023-04-25T13:39:42;5.33;;;2.70;;
6840;SDS011;3458;53.678;14.080;2023-04-25T13:42:07;9.60;;;2.90;;
6840;SDS011;3458;53.678;14.080;2023-04-25T13:44:33;7.13;;;2.20;;
6840;SDS011;3458;53.678;14.080;2023-04-25T13:46:58;6.20;;;2.60;;
6840;SDS011;3458;53.678;14.080;2023-04-25T13:49:25;9.53;;;2.03;;
6840;SDS011;3458;53.678;14.080;2023-04-25T13:51:51;10.10;;;2.57;;
6840;SDS011;3458;53.678;14.080;2023-04-25T13:54:16;12.43;;;2.60;;
6840;SDS011;3458;53.678;14.080;2023-04-25T13:56:42;11.70;;;2.60;;
6840;SDS011;3458;53.678;14.080;2023-04-25T13:59:07;9.80;;;2.87;;
6840;SDS011;3458;53.678;14.080;2023-04-25T14:01:33;8.67;;;2.73;;
6840;SDS011;3458;53.678;14.080;2023-04-25T14:04:00;9.63;;;2.83;;
6840;SDS011;3458;53.678;14.080;2023-04-25T14:06:26;8.13;;;3.53;;
6840;SDS011;3458;53.678;14.080;2023-04-25T14:08:52;5.93;;;2.60;;
6840;SDS011;3458;53.678;14.080;2023-04-25T14:11:18;7.80;;;2.10;;
6840;SDS011;3458;53.678;14.080;2023-04-25T14:13:45;13.70;;;2.60;;
6840;SDS011;3458;53.678;14.080;2023-04-25T14:16:11;7.70;;;2.33;;
6840;SDS011;3458;53.678;14.080;2023-04-25T14:18:36;7.10;;;3.30;;
6840;SDS011;3458;53.678;14.080;2023-04-25T14:21:02;6.73;;;2.50;;
6840;SDS011;3458;53.678;14.080;2023-04-25T14:23:27;6.73;;;2.40;;
6840;SDS011;3458;53.678;14.080;2023-04-25T14:25:53;11.80;;;2.60;;
6840;SDS011;3458;53.678;14.080;2023-04-25T14:28:19;8.23;;;2.20;;
6840;SDS011;3458;53.678;14.080;2023-04-25T14:30:44;10.20;;;2.77;;
6840;SDS011;3458;53.678;14.080;2023-04-25T14:33:10;7.10;;;2.40;;
6840;SDS011;3458;53.678;14.080;2023-04-25T14:35:36;8.80;;;2.17;;
6840;SDS011;3458;53.678;14.080;2023-04-25T14:38:01;6.07;;;2.33;;
6840;SDS011;3458;53.678;14.080;2023-04-25T14:40:27;10.83;;;2.53;;
6840;SDS011;3458;53.678;14.080;2023-04-25T14:42:52;7.30;;;2.37;;
6840;SDS011;3458;53.678;14.080;2023-04-25T14:45:18;9.13;;;2.27;;
6840;SDS011;3458;53.678;14.080;2023-04-25T14:47:43;6.93;;;2.50;;
6840;SDS011;3458;53.678;14.080;2023-04-25T14:50:09;6.43;;;3.10;;
6840;SDS011;3458;53.678;14.080;2023-04-25T14:52:35;13.40;;;3.00;;
6840;SDS011;3458;53.678;14.080;2023-04-25T14:55:01;5.93;;;2.30;;
6840;SDS011;3458;53.678;14.080;2023-04-25T14:57:30;7.93;;;2.80;;
6840;SDS011;3458;53.678;14.080;2023-04-25T14:59:59;13.33;;;3.47;;
6840;SDS011;3458;53.678;14.080;2023-04-25T15:02:25;10.10;;;4.00;;